createdAt,value
2022-11-13T00:01:09.124Z,7.73
2022-11-13T00:06:59.357Z,7.77
2022-11-13T00:12:48.883Z,7.74
2022-11-13T00:18:37.269Z,7.77
2022-11-13T00:24:24.802Z,7.75
2022-11-13T00:30:19.069Z,7.81
2022-11-13T00:36:10.316Z,7.82
2022-11-13T00:41:58.438Z,7.76
2022-11-13T00:47:47.895Z,7.81
2022-11-13T00:53:35.435Z,7.83
2022-11-13T00:59:23.466Z,7.84
2022-11-13T01:05:13.015Z,7.78
2022-11-13T01:11:01.435Z,7.81
2022-11-13T01:16:49.856Z,7.85
2022-11-13T01:22:38.805Z,7.90
2022-11-13T01:28:26.734Z,7.92
2022-11-13T01:34:14.600Z,7.93
2022-11-13T01:40:04.625Z,7.97
2022-11-13T01:46:10.122Z,7.99
2022-11-13T01:51:59.722Z,8.08
2022-11-13T01:57:49.851Z,8.14
2022-11-13T02:03:37.606Z,8.15
2022-11-13T02:09:28.352Z,8.18
2022-11-13T02:15:18.911Z,8.19
2022-11-13T02:21:15.204Z,8.22
2022-11-13T02:27:09.805Z,8.24
2022-11-13T02:32:58.737Z,8.27
2022-11-13T02:38:47.439Z,8.28
2022-11-13T02:44:36.924Z,8.29
2022-11-13T02:50:24.428Z,8.31
2022-11-13T02:56:12.520Z,8.31
2022-11-13T03:02:01.823Z,8.34
2022-11-13T03:07:49.507Z,8.35
2022-11-13T03:13:37.976Z,8.36
2022-11-13T03:19:27.439Z,8.35
2022-11-13T03:25:15.795Z,8.39
2022-11-13T03:31:04.481Z,8.42
2022-11-13T03:36:53.975Z,8.47
2022-11-13T03:42:41.433Z,8.49
2022-11-13T03:48:29.674Z,8.48
2022-11-13T03:54:19.162Z,8.50
2022-11-13T04:00:07.628Z,8.54
2022-11-13T04:05:55.447Z,8.58
2022-11-13T04:11:44.930Z,8.60
2022-11-13T04:17:32.705Z,8.65
2022-11-13T04:23:20.449Z,8.68
2022-11-13T04:29:09.951Z,8.69
2022-11-13T04:34:57.524Z,8.70
2022-11-13T04:40:45.858Z,8.71
2022-11-13T04:46:34.702Z,8.69
2022-11-13T04:52:22.659Z,8.70
2022-11-13T04:58:10.522Z,8.72
2022-11-13T05:03:59.746Z,8.70
2022-11-13T05:09:47.467Z,8.72
2022-11-13T05:15:35.724Z,8.74
2022-11-13T05:21:25.171Z,8.75
2022-11-13T05:27:17.092Z,8.77
2022-11-13T05:33:05.588Z,8.78
2022-11-13T05:38:54.707Z,8.83
2022-11-13T05:44:42.594Z,8.91
2022-11-13T05:50:30.691Z,8.95
2022-11-13T05:56:22.172Z,8.97
2022-11-13T06:02:09.803Z,9.05
2022-11-13T06:07:57.507Z,9.11
2022-11-13T06:13:48.728Z,9.17
2022-11-13T06:19:36.652Z,9.23
2022-11-13T06:25:24.527Z,9.28
2022-11-13T06:31:15.711Z,9.34
2022-11-13T06:37:03.694Z,9.40
2022-11-13T06:42:51.697Z,9.41
2022-11-13T06:48:41.064Z,9.48
2022-11-13T06:54:28.733Z,9.52
2022-11-13T07:00:17.484Z,9.56
2022-11-13T07:06:09.037Z,9.60
2022-11-13T07:11:56.491Z,9.65
2022-11-13T07:17:44.588Z,9.73
2022-11-13T07:23:34.312Z,9.75
2022-11-13T07:29:22.503Z,9.83
2022-11-13T07:35:11.482Z,9.89
2022-11-13T07:41:01.259Z,9.93
2022-11-13T07:46:48.532Z,9.97
2022-11-13T07:52:36.616Z,10.00
2022-11-13T07:58:26.041Z,10.06
2022-11-13T08:04:13.443Z,10.08
2022-11-13T08:10:02.012Z,10.12
2022-11-13T08:15:51.039Z,10.19
2022-11-13T08:21:38.580Z,10.19
2022-11-13T08:27:26.934Z,10.23
2022-11-13T08:33:16.126Z,10.34
2022-11-13T08:39:04.774Z,10.46
2022-11-13T08:44:52.528Z,10.67
2022-11-13T08:50:42.019Z,11.01
2022-11-13T08:56:29.730Z,11.26
2022-11-13T09:02:17.547Z,11.49
2022-11-13T09:08:07.628Z,11.57
2022-11-13T09:13:56.031Z,11.68
2022-11-13T09:19:43.399Z,12.03
2022-11-13T09:25:37.881Z,12.95
2022-11-13T09:31:26.439Z,13.37
2022-11-13T09:37:15.695Z,13.42
2022-11-13T09:43:07.321Z,13.17
2022-11-13T09:48:58.568Z,13.10
2022-11-13T09:54:46.756Z,13.39
2022-11-13T10:00:36.571Z,13.26
2022-11-13T10:06:30.957Z,13.40
2022-11-13T10:12:18.997Z,13.24
2022-11-13T10:18:14.383Z,12.95
2022-11-13T10:24:11.756Z,13.38
2022-11-13T10:30:10.144Z,13.98
2022-11-13T10:36:08.747Z,14.58
2022-11-13T10:41:57.279Z,14.60
2022-11-13T10:48:03.776Z,14.79
2022-11-13T10:53:55.508Z,14.33
2022-11-13T10:59:46.160Z,14.15
2022-11-13T11:05:33.735Z,14.50
2022-11-13T11:11:40.529Z,14.71
2022-11-13T11:17:34.215Z,14.64
2022-11-13T11:23:29.337Z,14.97
2022-11-13T11:29:27.864Z,14.95
2022-11-13T11:35:20.380Z,15.20
2022-11-13T11:41:16.565Z,15.29
2022-11-13T11:47:12.424Z,15.28
2022-11-13T11:53:06.935Z,15.50
2022-11-13T11:59:10.055Z,15.38
2022-11-13T12:05:18.587Z,15.42
2022-11-13T12:11:16.656Z,15.45
2022-11-13T12:17:21.080Z,15.28
2022-11-13T12:23:24.605Z,15.22
2022-11-13T12:29:26.249Z,15.08
2022-11-13T12:35:18.823Z,15.05
2022-11-13T12:41:17.619Z,15.13
2022-11-13T12:47:05.872Z,14.94
2022-11-13T12:53:01.629Z,14.78
2022-11-13T13:05:20.095Z,14.36
2022-11-13T13:11:21.014Z,14.23
2022-11-13T13:17:19.312Z,13.94
2022-11-13T13:23:08.842Z,13.75
2022-11-13T13:28:58.108Z,13.43
2022-11-13T13:34:56.927Z,13.10
2022-11-13T13:40:59.108Z,12.95
2022-11-13T13:46:46.543Z,12.65
2022-11-13T13:52:37.957Z,12.43
2022-11-13T13:58:31.230Z,12.23
2022-11-13T14:04:21.355Z,12.08
2022-11-13T14:10:19.072Z,11.93
2022-11-13T14:16:08.234Z,11.74
2022-11-13T14:22:00.402Z,11.60
2022-11-13T14:27:50.371Z,11.39
2022-11-13T14:33:44.475Z,11.14
2022-11-13T14:39:35.689Z,11.09
2022-11-13T14:45:27.188Z,11.00
2022-11-13T14:51:24.500Z,10.95
2022-11-13T14:57:15.284Z,10.91
2022-11-13T15:03:07.242Z,10.79
2022-11-13T15:08:58.175Z,10.70
2022-11-13T15:14:46.697Z,10.65
2022-11-13T15:20:36.025Z,10.52
2022-11-13T15:26:24.043Z,10.47
2022-11-13T15:32:12.938Z,10.34
2022-11-13T15:38:01.866Z,10.26
2022-11-13T15:43:51.892Z,10.19
2022-11-13T15:49:46.934Z,10.12
2022-11-13T15:55:42.513Z,10.01
2022-11-13T16:01:31.359Z,9.98
2022-11-13T16:07:23.242Z,9.92
2022-11-13T16:13:12.381Z,9.92
2022-11-13T16:19:01.434Z,9.88
2022-11-13T16:24:49.712Z,9.79
2022-11-13T16:30:38.818Z,9.78
2022-11-13T16:36:27.659Z,9.71
2022-11-13T16:42:16.795Z,9.69
2022-11-13T16:48:06.503Z,9.65
2022-11-13T16:53:54.570Z,9.64
2022-11-13T16:59:42.574Z,9.60
2022-11-13T17:05:31.843Z,9.54
2022-11-13T17:11:19.983Z,9.53
2022-11-13T17:17:12.064Z,9.49
2022-11-13T17:23:01.759Z,9.41
2022-11-13T17:28:49.836Z,9.34
2022-11-13T17:34:37.745Z,9.32
2022-11-13T17:40:26.940Z,9.29
2022-11-13T17:46:16.188Z,9.23
2022-11-13T17:52:03.471Z,9.19
2022-11-13T17:57:53.242Z,9.11
2022-11-13T18:03:40.908Z,9.07
2022-11-13T18:09:28.434Z,9.02
2022-11-13T18:15:17.548Z,9.01
2022-11-13T18:21:22.411Z,9.02
2022-11-13T18:27:12.431Z,9.03
2022-11-13T18:33:01.760Z,9.07
2022-11-13T18:38:49.604Z,9.09
2022-11-13T18:44:37.734Z,9.10
2022-11-13T18:50:27.785Z,9.09
2022-11-13T18:56:17.574Z,9.09
2022-11-13T19:02:06.018Z,9.08
2022-11-13T19:07:54.840Z,9.08
2022-11-13T19:13:44.068Z,9.07
2022-11-13T19:19:31.769Z,9.08
2022-11-13T19:25:20.862Z,9.05
2022-11-13T19:31:09.105Z,8.97
2022-11-13T19:36:56.742Z,8.95
2022-11-13T19:42:45.848Z,8.92
2022-11-13T19:48:34.037Z,8.86
2022-11-13T19:54:22.652Z,8.83
2022-11-13T20:00:14.060Z,8.78
2022-11-13T20:06:02.495Z,8.72
2022-11-13T20:11:50.857Z,8.68
2022-11-13T20:17:40.025Z,8.63
2022-11-13T20:23:27.738Z,8.60
2022-11-13T20:29:15.695Z,8.56
2022-11-13T20:35:05.157Z,8.54
2022-11-13T20:40:53.570Z,8.54
2022-11-13T20:46:41.416Z,8.54
2022-11-13T20:52:30.010Z,8.51
2022-11-13T20:58:17.739Z,8.48
2022-11-13T21:04:05.775Z,8.51
2022-11-13T21:09:54.904Z,8.52
2022-11-13T21:15:42.453Z,8.48
2022-11-13T21:21:29.493Z,8.44
2022-11-13T21:27:17.808Z,8.40
2022-11-13T21:33:06.156Z,8.39
2022-11-13T21:38:55.707Z,8.41
2022-11-13T21:44:43.732Z,8.37
2022-11-13T21:50:31.516Z,8.33
2022-11-13T21:56:19.952Z,8.31
2022-11-13T22:02:11.353Z,8.27
2022-11-13T22:07:58.697Z,8.26
2022-11-13T22:13:46.601Z,8.24
2022-11-13T22:19:36.506Z,8.23
2022-11-13T22:25:24.525Z,8.14
2022-11-13T22:31:15.960Z,8.16
2022-11-13T22:37:04.781Z,8.09
2022-11-13T22:42:55.738Z,8.03
2022-11-13T22:48:46.373Z,7.96
2022-11-13T22:54:36.048Z,7.88
2022-11-13T23:00:23.738Z,7.78
2022-11-13T23:06:12.239Z,7.70
2022-11-13T23:12:01.835Z,7.65
2022-11-13T23:17:49.470Z,7.52
2022-11-13T23:23:38.145Z,7.44
2022-11-13T23:29:26.778Z,7.38
2022-11-13T23:41:15.429Z,7.25
2022-11-13T23:47:04.887Z,7.16
2022-11-13T23:52:52.442Z,7.05
2022-11-13T23:58:40.611Z,7.03
